createdAt,value
2019-02-07T00:00:40.428Z,1012.97
2019-02-07T00:01:40.431Z,1012.97
2019-02-07T00:02:40.460Z,1012.90
2019-02-07T00:03:40.393Z,1012.84
2019-02-07T00:04:40.392Z,1012.88
2019-02-07T00:05:40.392Z,1012.91
2019-02-07T00:06:40.364Z,1012.88
2019-02-07T00:07:40.393Z,1012.86
2019-02-07T00:08:40.373Z,1012.80
2019-02-07T00:09:40.321Z,1012.82
2019-02-07T00:10:40.318Z,1012.75
2019-02-07T00:11:40.301Z,1012.79
2019-02-07T00:12:40.292Z,1012.82
2019-02-07T00:13:40.301Z,1012.81
2019-02-07T00:14:40.279Z,1012.73
2019-02-07T00:15:40.828Z,1012.81
2019-02-07T00:16:40.288Z,1012.80
2019-02-07T00:17:40.296Z,1012.80
2019-02-07T00:18:40.252Z,1012.76
2019-02-07T00:19:40.230Z,1012.71
2019-02-07T00:20:40.212Z,1012.70
2019-02-07T00:21:40.207Z,1012.72
2019-02-07T00:22:40.226Z,1012.66
2019-02-07T00:23:40.190Z,1012.65
2019-02-07T00:24:42.817Z,1012.64
2019-02-07T00:25:40.205Z,1012.66
2019-02-07T00:26:40.182Z,1012.64
2019-02-07T00:27:40.180Z,1012.66
2019-02-07T00:28:40.118Z,1012.71
2019-02-07T00:29:40.119Z,1012.65
2019-02-07T00:30:48.215Z,1012.65
2019-02-07T00:31:40.109Z,1012.66
2019-02-07T00:32:40.143Z,1012.69
2019-02-07T00:33:48.132Z,1012.69
2019-02-07T00:34:47.911Z,1012.69
2019-02-07T00:35:47.163Z,1012.62
2019-02-07T00:36:48.419Z,1012.60
2019-02-07T00:37:48.470Z,1012.64
2019-02-07T00:38:48.955Z,1012.65
2019-02-07T00:39:48.060Z,1012.69
2019-02-07T00:40:40.052Z,1012.64
2019-02-07T00:41:40.045Z,1012.64
2019-02-07T00:42:40.007Z,1012.62
2019-02-07T00:43:47.016Z,1012.60
2019-02-07T00:44:50.246Z,1012.53
2019-02-07T00:45:41.054Z,1012.58
2019-02-07T00:46:47.995Z,1012.60
2019-02-07T00:47:47.026Z,1012.59
2019-02-07T00:48:46.976Z,1012.54
2019-02-07T00:49:46.961Z,1012.51
2019-02-07T00:50:39.886Z,1012.48
2019-02-07T00:51:47.915Z,1012.53
2019-02-07T00:52:47.946Z,1012.50
2019-02-07T00:53:46.904Z,1012.41
2019-02-07T00:54:47.697Z,1012.51
2019-02-07T00:55:47.891Z,1012.48
2019-02-07T00:56:47.719Z,1012.47
2019-02-07T00:57:48.739Z,1012.52
2019-02-07T00:58:39.842Z,1012.55
2019-02-07T00:59:39.818Z,1012.51
2019-02-07T01:00:39.776Z,1012.45
2019-02-07T01:01:39.795Z,1012.44
2019-02-07T01:02:39.776Z,1012.40
2019-02-07T01:03:39.785Z,1012.35
2019-02-07T01:04:39.788Z,1012.33
2019-02-07T01:05:39.710Z,1012.37
2019-02-07T01:06:47.659Z,1012.33
2019-02-07T01:07:47.806Z,1012.35
2019-02-07T01:08:46.933Z,1012.36
2019-02-07T01:09:46.777Z,1012.31
2019-02-07T01:10:49.681Z,1012.30
2019-02-07T01:11:47.709Z,1012.20
2019-02-07T01:12:48.423Z,1012.16
2019-02-07T01:13:47.912Z,1012.06
2019-02-07T01:14:47.456Z,1012.13
2019-02-07T01:15:48.697Z,1012.17
2019-02-07T01:16:46.753Z,1012.17
2019-02-07T01:17:47.634Z,1012.18
2019-02-07T01:18:47.214Z,1012.15
2019-02-07T01:19:39.666Z,1012.17
2019-02-07T01:20:39.586Z,1012.16
2019-02-07T01:21:39.585Z,1012.11
2019-02-07T01:22:39.538Z,1012.07
2019-02-07T01:23:39.542Z,1012.02
2019-02-07T01:24:39.552Z,1012.07
2019-02-07T01:25:39.571Z,1012.10
2019-02-07T01:26:39.510Z,1012.14
2019-02-07T01:27:39.527Z,1012.11
2019-02-07T01:28:39.551Z,1012.09
2019-02-07T01:29:39.466Z,1012.06
2019-02-07T01:30:39.477Z,1012.05
2019-02-07T01:31:39.475Z,1012.06
2019-02-07T01:32:39.443Z,1012.07
2019-02-07T01:33:39.447Z,1012.07
2019-02-07T01:34:39.400Z,1012.09
2019-02-07T01:35:39.446Z,1012.08
2019-02-07T01:36:39.447Z,1012.10
2019-02-07T01:37:39.413Z,1012.05
2019-02-07T01:38:39.466Z,1012.05
2019-02-07T01:39:39.349Z,1012.00
2019-02-07T01:40:39.348Z,1012.03
2019-02-07T01:41:39.337Z,1012.00
2019-02-07T01:42:39.340Z,1011.92
2019-02-07T01:43:39.362Z,1011.92
2019-02-07T01:44:39.340Z,1011.95
2019-02-07T01:45:39.286Z,1011.93
2019-02-07T01:46:39.310Z,1011.98
2019-02-07T01:47:39.278Z,1011.97
2019-02-07T01:48:39.301Z,1011.98
2019-02-07T01:49:39.264Z,1011.97
2019-02-07T01:50:40.020Z,1011.93
2019-02-07T01:51:39.240Z,1011.93
2019-02-07T01:52:40.049Z,1011.86
2019-02-07T01:53:39.239Z,1011.86
2019-02-07T01:54:39.235Z,1011.85
2019-02-07T01:55:39.196Z,1011.81
2019-02-07T01:56:39.181Z,1011.82
2019-02-07T01:57:39.164Z,1011.79
2019-02-07T01:58:39.558Z,1011.84
2019-02-07T01:59:39.163Z,1011.77
2019-02-07T02:00:39.163Z,1011.82
2019-02-07T02:01:39.186Z,1011.76
2019-02-07T02:02:39.139Z,1011.78
2019-02-07T02:03:39.121Z,1011.72
2019-02-07T02:04:39.126Z,1011.69
2019-02-07T02:05:39.103Z,1011.65
2019-02-07T02:06:39.108Z,1011.65
2019-02-07T02:07:39.121Z,1011.66
2019-02-07T02:08:39.089Z,1011.62
2019-02-07T02:09:39.381Z,1011.54
2019-02-07T02:10:39.055Z,1011.54
2019-02-07T02:11:39.073Z,1011.49
2019-02-07T02:12:39.071Z,1011.47
2019-02-07T02:13:39.021Z,1011.51
2019-02-07T02:14:39.044Z,1011.46
2019-02-07T02:15:38.990Z,1011.45
2019-02-07T02:16:38.984Z,1011.45
2019-02-07T02:17:38.997Z,1011.41
2019-02-07T02:18:38.961Z,1011.35
2019-02-07T02:19:39.010Z,1011.40
2019-02-07T02:20:38.910Z,1011.35
2019-02-07T02:21:38.940Z,1011.41
2019-02-07T02:22:38.919Z,1011.30
2019-02-07T02:23:38.909Z,1011.33
2019-02-07T02:24:38.932Z,1011.26
2019-02-07T02:25:46.609Z,1011.24
2019-02-07T02:26:46.918Z,1011.21
2019-02-07T02:27:47.535Z,1011.15
2019-02-07T02:28:38.858Z,1011.11
2019-02-07T02:29:38.872Z,1011.00
2019-02-07T02:30:38.837Z,1011.06
2019-02-07T02:31:38.841Z,1011.08
2019-02-07T02:32:38.796Z,1011.08
2019-02-07T02:33:38.786Z,1011.09
2019-02-07T02:34:38.811Z,1011.09
2019-02-07T02:35:38.800Z,1011.18
2019-02-07T02:36:38.802Z,1011.17
2019-02-07T02:37:38.769Z,1011.19
2019-02-07T02:38:38.776Z,1011.15
2019-02-07T02:39:38.785Z,1011.08
2019-02-07T02:40:38.749Z,1011.07
2019-02-07T02:41:38.761Z,1011.08
2019-02-07T02:42:38.708Z,1011.11
2019-02-07T02:43:38.715Z,1011.09
2019-02-07T02:44:38.733Z,1011.09
2019-02-07T02:45:38.698Z,1011.04
2019-02-07T02:46:38.677Z,1011.06
2019-02-07T02:47:38.654Z,1011.07
2019-02-07T02:48:38.657Z,1010.95
2019-02-07T02:49:38.656Z,1010.99
2019-02-07T02:50:38.611Z,1010.94
2019-02-07T02:51:38.623Z,1010.93
2019-02-07T02:52:40.359Z,1010.87
2019-02-07T02:53:38.594Z,1010.88
2019-02-07T02:54:38.597Z,1010.93
2019-02-07T02:55:38.586Z,1010.89
2019-02-07T02:56:38.544Z,1010.87
2019-02-07T02:57:38.567Z,1010.82
2019-02-07T02:58:46.563Z,1010.83
2019-02-07T02:59:45.582Z,1010.78
2019-02-07T03:01:55.481Z,1010.72
2019-02-07T03:02:56.011Z,1010.76
2019-02-07T03:03:55.151Z,1010.77
2019-02-07T03:04:55.071Z,1010.81
2019-02-07T03:05:55.047Z,1010.85
2019-02-07T03:06:55.042Z,1010.85
2019-02-07T03:07:55.066Z,1010.86
2019-02-07T03:08:55.023Z,1010.76
2019-02-07T03:09:55.034Z,1010.78
2019-02-07T03:10:54.999Z,1010.70
2019-02-07T03:11:55.017Z,1010.69
2019-02-07T03:12:55.018Z,1010.76
2019-02-07T03:13:54.952Z,1010.71
2019-02-07T03:14:54.958Z,1010.74
2019-02-07T03:15:54.977Z,1010.75
2019-02-07T03:16:54.981Z,1010.75
2019-02-07T03:17:54.946Z,1010.74
2019-02-07T03:18:54.897Z,1010.73
2019-02-07T03:19:54.903Z,1010.64
2019-02-07T03:20:54.906Z,1010.64
2019-02-07T03:21:54.902Z,1010.65
2019-02-07T03:22:54.901Z,1010.61
2019-02-07T03:23:54.893Z,1010.53
2019-02-07T03:24:54.886Z,1010.49
2019-02-07T03:25:54.884Z,1010.44
2019-02-07T03:26:54.846Z,1010.46
2019-02-07T03:27:54.836Z,1010.50
2019-02-07T03:29:01.874Z,1010.53
2019-02-07T03:30:02.874Z,1010.48
2019-02-07T03:30:54.937Z,1010.43
2019-02-07T03:31:55.016Z,1010.48
2019-02-07T03:32:54.782Z,1010.47
2019-02-07T03:33:54.755Z,1010.46
2019-02-07T03:34:54.759Z,1010.40
2019-02-07T03:35:54.785Z,1010.39
2019-02-07T03:36:54.779Z,1010.43
2019-02-07T03:37:54.713Z,1010.43
2019-02-07T03:38:54.689Z,1010.45
2019-02-07T03:39:54.688Z,1010.39
2019-02-07T03:40:54.727Z,1010.39
2019-02-07T03:41:54.697Z,1010.38
2019-02-07T03:42:54.688Z,1010.37
2019-02-07T03:45:11.250Z,1010.36
2019-02-07T03:46:11.248Z,1010.32
2019-02-07T03:47:19.565Z,1010.32
2019-02-07T03:48:18.295Z,1010.28
2019-02-07T03:49:19.159Z,1010.24
2019-02-07T03:50:18.342Z,1010.27
2019-02-07T03:51:19.273Z,1010.33
2019-02-07T03:52:19.365Z,1010.24
2019-02-07T03:53:19.770Z,1010.28
2019-02-07T03:54:19.814Z,1010.24
2019-02-07T03:55:11.194Z,1010.19
2019-02-07T03:56:11.182Z,1010.25
2019-02-07T03:57:11.113Z,1010.32
2019-02-07T03:58:11.784Z,1010.24
2019-02-07T03:59:11.133Z,1010.22
2019-02-07T04:00:11.104Z,1010.27
2019-02-07T04:01:11.100Z,1010.22
2019-02-07T04:02:11.055Z,1010.24
2019-02-07T04:03:11.774Z,1010.16
2019-02-07T04:04:11.055Z,1010.17
2019-02-07T04:05:11.080Z,1010.18
2019-02-07T04:06:11.052Z,1010.11
2019-02-07T04:07:11.046Z,1010.18
2019-02-07T04:08:10.998Z,1010.23
2019-02-07T04:09:10.998Z,1010.09
2019-02-07T04:10:10.984Z,1010.08
2019-02-07T04:11:11.101Z,1010.11
2019-02-07T04:12:10.962Z,1010.09
2019-02-07T04:13:10.987Z,1010.09
2019-02-07T04:14:10.928Z,1010.13
2019-02-07T04:15:10.958Z,1010.08
2019-02-07T04:16:15.105Z,1010.06
2019-02-07T04:17:18.995Z,1010.10
2019-02-07T04:18:18.861Z,1010.11
2019-02-07T04:19:10.897Z,1010.11
2019-02-07T04:20:10.870Z,1010.13
2019-02-07T04:21:10.925Z,1010.09
2019-02-07T04:22:10.951Z,1010.00
2019-02-07T04:23:10.855Z,1010.06
2019-02-07T04:24:10.840Z,1009.98
2019-02-07T04:25:17.900Z,1009.99
2019-02-07T04:26:10.862Z,1009.95
2019-02-07T04:27:17.911Z,1010.02
2019-02-07T04:28:19.419Z,1009.97
2019-02-07T04:29:18.471Z,1009.96
2019-02-07T04:30:18.826Z,1010.00
2019-02-07T04:31:17.883Z,1009.98
2019-02-07T04:32:19.526Z,1009.92
2019-02-07T04:33:17.795Z,1009.93
2019-02-07T04:34:19.563Z,1009.95
2019-02-07T04:35:18.587Z,1009.96
2019-02-07T04:36:17.825Z,1009.92
2019-02-07T04:37:19.686Z,1009.93
2019-02-07T04:38:19.681Z,1009.86
2019-02-07T04:39:17.861Z,1009.87
2019-02-07T04:40:18.709Z,1009.76
2019-02-07T04:41:18.712Z,1009.81
2019-02-07T04:42:18.681Z,1009.74
2019-02-07T04:43:18.701Z,1009.70
2019-02-07T04:44:19.315Z,1009.71
2019-02-07T04:45:10.703Z,1009.80
2019-02-07T04:46:26.652Z,1009.73
2019-02-07T04:47:10.684Z,1009.71
2019-02-07T04:48:10.622Z,1009.69
2019-02-07T04:49:10.646Z,1009.63
2019-02-07T04:50:10.573Z,1009.58
2019-02-07T04:51:10.603Z,1009.49
2019-02-07T04:52:10.576Z,1009.53
2019-02-07T04:53:10.549Z,1009.51
2019-02-07T04:54:10.555Z,1009.52
2019-02-07T04:55:10.522Z,1009.56
2019-02-07T04:56:10.550Z,1009.47
2019-02-07T04:57:10.536Z,1009.47
2019-02-07T04:58:10.491Z,1009.51
2019-02-07T04:59:10.497Z,1009.50
2019-02-07T05:00:10.477Z,1009.44
2019-02-07T05:01:10.817Z,1009.43
2019-02-07T05:02:10.471Z,1009.40
2019-02-07T05:03:10.476Z,1009.37
2019-02-07T05:04:10.436Z,1009.36
2019-02-07T05:05:10.427Z,1009.36
2019-02-07T05:06:10.444Z,1009.32
2019-02-07T05:07:10.406Z,1009.31
2019-02-07T05:08:10.434Z,1009.29
2019-02-07T05:09:10.408Z,1009.29
2019-02-07T05:10:10.386Z,1009.35
2019-02-07T05:11:10.379Z,1009.30
2019-02-07T05:12:10.331Z,1009.28
2019-02-07T05:13:10.343Z,1009.32
2019-02-07T05:14:10.354Z,1009.35
2019-02-07T05:15:10.315Z,1009.33
2019-02-07T05:16:10.365Z,1009.35
2019-02-07T05:17:10.319Z,1009.31
2019-02-07T05:18:10.274Z,1009.30
2019-02-07T05:19:10.365Z,1009.30
2019-02-07T05:20:10.286Z,1009.26
2019-02-07T05:21:10.295Z,1009.22
2019-02-07T05:22:10.234Z,1009.15
2019-02-07T05:23:10.224Z,1009.16
2019-02-07T05:24:10.234Z,1009.23
2019-02-07T05:25:10.215Z,1009.17
2019-02-07T05:26:10.842Z,1009.22
2019-02-07T05:27:10.178Z,1009.19
2019-02-07T05:28:10.201Z,1009.26
2019-02-07T05:29:10.185Z,1009.19
2019-02-07T05:30:10.153Z,1009.19
2019-02-07T05:31:10.174Z,1009.14
2019-02-07T05:32:10.158Z,1009.13
2019-02-07T05:33:10.116Z,1009.11
2019-02-07T05:34:10.164Z,1009.01
2019-02-07T05:35:10.120Z,1009.04
2019-02-07T05:36:10.117Z,1009.08
2019-02-07T05:37:10.849Z,1009.04
2019-02-07T05:38:10.050Z,1009.03
2019-02-07T05:39:10.048Z,1009.11
2019-02-07T05:40:10.062Z,1009.03
2019-02-07T05:41:10.086Z,1009.04
2019-02-07T05:42:10.072Z,1008.94
2019-02-07T05:43:10.831Z,1008.96
2019-02-07T05:44:10.055Z,1008.98
2019-02-07T05:45:10.031Z,1008.93
2019-02-07T05:46:09.999Z,1008.99
2019-02-07T05:47:10.008Z,1009.08
2019-02-07T05:48:10.001Z,1009.02
2019-02-07T05:49:09.978Z,1008.99
2019-02-07T05:50:09.971Z,1008.93
2019-02-07T05:51:09.932Z,1008.93
2019-02-07T05:52:09.973Z,1008.99
2019-02-07T05:53:09.911Z,1008.93
2019-02-07T05:54:09.907Z,1008.95
2019-02-07T05:55:09.924Z,1008.94
2019-02-07T05:56:09.880Z,1008.96
2019-02-07T05:57:09.920Z,1008.92
2019-02-07T05:58:09.884Z,1008.95
2019-02-07T05:59:09.839Z,1008.97
2019-02-07T06:00:09.858Z,1008.96
2019-02-07T06:01:09.845Z,1008.95
2019-02-07T06:02:09.874Z,1008.92
2019-02-07T06:03:09.836Z,1008.89
2019-02-07T06:04:09.855Z,1008.89
2019-02-07T06:05:09.803Z,1008.89
2019-02-07T06:06:09.784Z,1008.85
2019-02-07T06:07:10.309Z,1008.87
2019-02-07T06:08:17.348Z,1008.82
2019-02-07T06:09:09.909Z,1008.81
2019-02-07T06:10:09.738Z,1008.80
2019-02-07T06:11:09.707Z,1008.77
2019-02-07T06:12:09.769Z,1008.75
2019-02-07T06:13:09.722Z,1008.74
2019-02-07T06:14:09.702Z,1008.65
2019-02-07T06:15:09.666Z,1008.76
2019-02-07T06:16:09.647Z,1008.78
2019-02-07T06:17:09.867Z,1008.76
2019-02-07T06:18:10.344Z,1008.78
2019-02-07T06:19:09.685Z,1008.79
2019-02-07T06:20:09.715Z,1008.76
2019-02-07T06:21:09.627Z,1008.75
2019-02-07T06:22:09.633Z,1008.67
2019-02-07T06:23:09.598Z,1008.63
2019-02-07T06:24:17.422Z,1008.66
2019-02-07T06:25:16.691Z,1008.64
2019-02-07T06:26:17.671Z,1008.66
2019-02-07T06:27:16.625Z,1008.59
2019-02-07T06:28:16.915Z,1008.62
2019-02-07T06:29:17.475Z,1008.60
2019-02-07T06:30:18.489Z,1008.59
2019-02-07T06:31:17.615Z,1008.58
2019-02-07T06:32:09.546Z,1008.52
2019-02-07T06:33:09.516Z,1008.52
2019-02-07T06:34:09.504Z,1008.52
2019-02-07T06:35:09.479Z,1008.48
2019-02-07T06:36:09.471Z,1008.53
2019-02-07T06:37:09.500Z,1008.48
2019-02-07T06:38:09.426Z,1008.50
2019-02-07T06:39:09.435Z,1008.52
2019-02-07T06:40:09.419Z,1008.49
2019-02-07T06:41:09.405Z,1008.54
2019-02-07T06:42:09.413Z,1008.42
2019-02-07T06:43:09.423Z,1008.39
2019-02-07T06:44:09.385Z,1008.45
2019-02-07T06:45:09.384Z,1008.49
2019-02-07T06:46:09.382Z,1008.44
2019-02-07T06:47:13.458Z,1008.38
2019-02-07T06:48:09.345Z,1008.40
2019-02-07T06:49:17.357Z,1008.42
2019-02-07T06:50:09.366Z,1008.45
2019-02-07T06:51:09.342Z,1008.42
2019-02-07T06:52:09.314Z,1008.37
2019-02-07T06:53:11.213Z,1008.38
2019-02-07T06:54:09.263Z,1008.30
2019-02-07T06:55:09.289Z,1008.18
2019-02-07T06:56:09.254Z,1008.24
2019-02-07T06:57:09.283Z,1008.23
2019-02-07T06:58:09.229Z,1008.24
2019-02-07T06:59:09.254Z,1008.21
2019-02-07T07:00:09.225Z,1008.19
2019-02-07T07:01:09.195Z,1008.21
2019-02-07T07:02:09.217Z,1008.18
2019-02-07T07:03:09.188Z,1008.16
2019-02-07T07:04:09.159Z,1008.12
2019-02-07T07:05:18.070Z,1008.12
2019-02-07T07:06:09.246Z,1008.10
2019-02-07T07:07:09.170Z,1008.13
2019-02-07T07:08:09.128Z,1008.14
2019-02-07T07:09:09.110Z,1008.18
2019-02-07T07:10:09.119Z,1008.19
2019-02-07T07:11:09.098Z,1008.19
2019-02-07T07:12:09.114Z,1008.13
2019-02-07T07:13:09.083Z,1008.17
2019-02-07T07:14:09.076Z,1008.18
2019-02-07T07:15:09.051Z,1008.20
2019-02-07T07:16:09.047Z,1008.23
2019-02-07T07:17:09.073Z,1008.23
2019-02-07T07:18:09.062Z,1008.17
2019-02-07T07:19:09.010Z,1008.14
2019-02-07T07:20:09.026Z,1008.24
2019-02-07T07:21:08.993Z,1008.20
2019-02-07T07:22:09.003Z,1008.23
2019-02-07T07:23:09.560Z,1008.13
2019-02-07T07:24:09.027Z,1008.14
2019-02-07T07:25:08.950Z,1008.19
2019-02-07T07:26:09.496Z,1008.20
2019-02-07T07:27:09.013Z,1008.19
2019-02-07T07:28:08.928Z,1008.17
2019-02-07T07:29:10.606Z,1008.12
2019-02-07T07:30:08.894Z,1008.14
2019-02-07T07:31:08.897Z,1008.16
2019-02-07T07:32:08.898Z,1008.12
2019-02-07T07:33:08.866Z,1008.16
2019-02-07T07:34:08.860Z,1008.13
2019-02-07T07:35:08.860Z,1008.14
2019-02-07T07:36:08.894Z,1008.13
2019-02-07T07:37:08.873Z,1008.16
2019-02-07T07:38:08.828Z,1008.13
2019-02-07T07:39:08.815Z,1008.15
2019-02-07T07:40:08.833Z,1008.17
2019-02-07T07:41:08.798Z,1008.16
2019-02-07T07:42:08.814Z,1008.10
2019-02-07T07:43:08.758Z,1008.07
2019-02-07T07:44:08.818Z,1008.07
2019-02-07T07:45:08.740Z,1008.00
2019-02-07T07:46:08.841Z,1008.05
2019-02-07T07:47:08.768Z,1008.01
2019-02-07T07:48:08.765Z,1008.07
2019-02-07T07:49:10.508Z,1008.06
2019-02-07T07:50:08.678Z,1008.00
2019-02-07T07:51:08.686Z,1008.04
2019-02-07T07:52:08.690Z,1008.02
2019-02-07T07:53:08.688Z,1007.96
2019-02-07T07:54:08.680Z,1007.93
2019-02-07T07:55:08.624Z,1007.83
2019-02-07T07:56:08.652Z,1007.87
2019-02-07T07:57:08.654Z,1007.77
2019-02-07T07:58:08.645Z,1007.77
2019-02-07T07:59:16.609Z,1007.77
2019-02-07T08:00:08.617Z,1007.74
2019-02-07T08:01:08.575Z,1007.70
2019-02-07T08:02:10.182Z,1007.72
2019-02-07T08:03:08.553Z,1007.72
2019-02-07T08:04:08.585Z,1007.72
2019-02-07T08:05:08.567Z,1007.70
2019-02-07T08:06:08.553Z,1007.76
2019-02-07T08:07:16.624Z,1007.75
2019-02-07T08:08:16.654Z,1007.68
2019-02-07T08:09:08.489Z,1007.70
2019-02-07T08:10:08.534Z,1007.65
2019-02-07T08:11:08.490Z,1007.69
2019-02-07T08:12:08.455Z,1007.65
2019-02-07T08:13:08.479Z,1007.66
2019-02-07T08:14:09.148Z,1007.63
2019-02-07T08:15:08.455Z,1007.56
2019-02-07T08:16:08.446Z,1007.56
2019-02-07T08:17:16.199Z,1007.56
2019-02-07T08:18:15.581Z,1007.55
2019-02-07T08:19:17.210Z,1007.59
2019-02-07T08:20:17.187Z,1007.49
2019-02-07T08:21:08.395Z,1007.52
2019-02-07T08:22:16.402Z,1007.52
2019-02-07T08:23:16.527Z,1007.46
2019-02-07T08:27:47.363Z,1007.48
2019-02-07T08:28:55.207Z,1007.47
2019-02-07T08:29:55.061Z,1007.51
2019-02-07T08:30:54.793Z,1007.51
2019-02-07T08:31:56.136Z,1007.47
2019-02-07T08:32:55.202Z,1007.46
2019-02-07T08:33:55.153Z,1007.39
2019-02-07T08:34:54.702Z,1007.36
2019-02-07T08:35:55.648Z,1007.37
2019-02-07T08:38:03.956Z,1007.35
2019-02-07T08:39:04.012Z,1007.35
2019-02-07T08:40:03.971Z,1007.38
2019-02-07T08:41:03.978Z,1007.34
2019-02-07T08:42:03.935Z,1007.31
2019-02-07T08:43:03.942Z,1007.35
2019-02-07T08:44:03.898Z,1007.20
2019-02-07T08:45:04.537Z,1007.20
2019-02-07T08:46:03.940Z,1007.21
2019-02-07T08:47:03.924Z,1007.23
2019-02-07T08:48:04.122Z,1007.19
2019-02-07T08:49:03.870Z,1007.12
2019-02-07T08:50:03.871Z,1007.18
2019-02-07T08:51:03.845Z,1007.19
2019-02-07T08:52:04.500Z,1007.12
2019-02-07T08:53:03.864Z,1007.08
2019-02-07T08:54:03.857Z,1006.95
2019-02-07T08:55:03.801Z,1006.99
2019-02-07T08:56:03.801Z,1007.04
2019-02-07T08:57:03.790Z,1006.98
2019-02-07T08:58:03.966Z,1006.99
2019-02-07T08:59:11.809Z,1006.94
2019-02-07T09:02:27.515Z,1006.88
2019-02-07T09:03:35.575Z,1006.90
2019-02-07T09:04:35.775Z,1006.87
2019-02-07T09:05:34.480Z,1006.97
2019-02-07T09:06:35.490Z,1006.92
2019-02-07T09:07:27.430Z,1006.95
2019-02-07T09:08:27.417Z,1006.86
2019-02-07T09:09:27.390Z,1006.93
2019-02-07T09:10:27.368Z,1006.82
2019-02-07T09:11:27.361Z,1006.82
2019-02-07T09:12:27.430Z,1006.79
2019-02-07T09:13:27.360Z,1006.75
2019-02-07T09:14:27.340Z,1006.71
2019-02-07T09:15:27.296Z,1006.71
2019-02-07T09:16:27.288Z,1006.68
2019-02-07T09:17:27.287Z,1006.53
2019-02-07T09:18:27.305Z,1006.57
2019-02-07T09:19:27.310Z,1006.61
2019-02-07T09:20:27.280Z,1006.54
2019-02-07T09:21:27.258Z,1006.54
2019-02-07T09:22:34.337Z,1006.48
2019-02-07T09:23:35.317Z,1006.49
2019-02-07T09:24:35.945Z,1006.48
2019-02-07T09:25:35.228Z,1006.48
2019-02-07T09:26:35.726Z,1006.55
2019-02-07T09:28:43.863Z,1006.34
2019-02-07T09:29:43.760Z,1006.27
2019-02-07T09:30:43.765Z,1006.34
2019-02-07T09:31:43.735Z,1006.34
2019-02-07T09:32:43.712Z,1006.38
2019-02-07T09:33:43.718Z,1006.37
2019-02-07T09:34:43.691Z,1006.37
2019-02-07T09:35:43.705Z,1006.40
2019-02-07T09:36:43.690Z,1006.46
2019-02-07T09:37:43.683Z,1006.47
2019-02-07T09:38:43.725Z,1006.47
2019-02-07T09:39:43.691Z,1006.42
2019-02-07T09:40:43.692Z,1006.42
2019-02-07T09:41:43.624Z,1006.34
2019-02-07T09:42:43.634Z,1006.45
2019-02-07T09:43:51.674Z,1006.44
2019-02-07T09:44:43.658Z,1006.45
2019-02-07T09:45:43.559Z,1006.42
2019-02-07T09:46:43.567Z,1006.40
2019-02-07T09:47:43.559Z,1006.11
2019-02-07T09:48:50.667Z,1006.27
2019-02-07T09:49:51.669Z,1006.36
2019-02-07T09:50:50.617Z,1006.42
2019-02-07T09:51:43.509Z,1006.42
2019-02-07T09:52:43.512Z,1006.35
2019-02-07T09:53:43.500Z,1006.41
2019-02-07T09:54:43.496Z,1006.36
2019-02-07T09:55:43.491Z,1006.25
2019-02-07T09:56:43.459Z,1006.22
2019-02-07T09:57:43.469Z,1006.21
2019-02-07T09:58:43.470Z,1006.24
2019-02-07T09:59:43.431Z,1006.23
2019-02-07T10:00:43.440Z,1006.26
2019-02-07T10:01:43.461Z,1006.24
2019-02-07T10:02:43.400Z,1006.22
2019-02-07T10:03:43.441Z,1006.42
2019-02-07T10:04:43.395Z,1006.37
2019-02-07T10:05:43.384Z,1006.30
2019-02-07T10:06:43.393Z,1006.29
2019-02-07T10:07:43.344Z,1006.26
2019-02-07T10:08:43.344Z,1006.30
2019-02-07T10:09:43.354Z,1006.24
2019-02-07T10:10:43.328Z,1006.29
2019-02-07T10:11:43.361Z,1006.29
2019-02-07T10:12:43.320Z,1006.27
2019-02-07T10:13:43.282Z,1006.21
2019-02-07T10:14:43.295Z,1006.23
2019-02-07T10:15:43.270Z,1006.25
2019-02-07T10:16:43.257Z,1006.22
2019-02-07T10:17:43.272Z,1006.22
2019-02-07T10:18:43.259Z,1006.13
2019-02-07T10:19:43.246Z,1006.21
2019-02-07T10:20:43.215Z,1006.14
2019-02-07T10:21:43.827Z,1006.13
2019-02-07T10:22:51.778Z,1006.14
2019-02-07T10:23:50.277Z,1006.04
2019-02-07T10:24:51.303Z,1006.11
2019-02-07T10:25:43.201Z,1006.02
2019-02-07T10:26:43.148Z,1006.07
2019-02-07T10:27:43.140Z,1005.85
2019-02-07T10:28:43.142Z,1005.97
2019-02-07T10:29:43.153Z,1005.86
2019-02-07T10:30:43.078Z,1005.75
2019-02-07T10:31:43.125Z,1005.82
2019-02-07T10:32:43.077Z,1005.72
2019-02-07T10:33:43.087Z,1005.73
2019-02-07T10:34:43.085Z,1005.84
2019-02-07T10:35:43.029Z,1005.74
2019-02-07T10:36:43.044Z,1005.82
2019-02-07T10:37:43.041Z,1005.75
2019-02-07T10:38:43.038Z,1005.70
2019-02-07T10:39:43.033Z,1005.71
2019-02-07T10:40:43.012Z,1005.67
2019-02-07T10:41:42.999Z,1005.73
2019-02-07T10:42:42.961Z,1005.76
2019-02-07T10:43:42.965Z,1005.77
2019-02-07T10:44:42.993Z,1005.80
2019-02-07T10:45:42.959Z,1005.63
2019-02-07T10:46:42.932Z,1005.55
2019-02-07T10:47:42.940Z,1005.59
2019-02-07T10:48:44.607Z,1005.62
2019-02-07T10:49:42.942Z,1005.53
2019-02-07T10:50:42.889Z,1005.57
2019-02-07T10:51:42.900Z,1005.63
2019-02-07T10:52:42.902Z,1005.65
2019-02-07T10:53:42.906Z,1005.63
2019-02-07T10:54:42.921Z,1005.58
2019-02-07T10:55:42.838Z,1005.48
2019-02-07T10:56:42.833Z,1005.47
2019-02-07T10:57:42.838Z,1005.41
2019-02-07T10:58:42.834Z,1005.47
2019-02-07T10:59:42.831Z,1005.27
2019-02-07T11:00:42.817Z,1005.30
2019-02-07T11:01:42.792Z,1005.25
2019-02-07T11:02:42.769Z,1005.33
2019-02-07T11:03:42.773Z,1005.36
2019-02-07T11:04:42.796Z,1005.33
2019-02-07T11:05:42.714Z,1005.36
2019-02-07T11:06:42.720Z,1005.27
2019-02-07T11:07:42.739Z,1005.27
2019-02-07T11:08:43.334Z,1005.23
2019-02-07T11:09:42.718Z,1005.17
2019-02-07T11:10:42.705Z,1005.25
2019-02-07T11:11:42.673Z,1005.23
2019-02-07T11:12:42.663Z,1005.18
2019-02-07T11:13:42.652Z,1005.21
2019-02-07T11:14:42.648Z,1005.08
2019-02-07T11:15:42.647Z,1005.06
2019-02-07T11:16:42.626Z,1005.18
2019-02-07T11:17:42.656Z,1005.19
2019-02-07T11:18:42.581Z,1005.14
2019-02-07T11:19:43.303Z,1005.04
2019-02-07T11:20:42.615Z,1005.18
2019-02-07T11:21:42.577Z,1005.05
2019-02-07T11:22:42.572Z,1005.00
2019-02-07T11:23:42.578Z,1004.97
2019-02-07T11:24:42.532Z,1004.97
2019-02-07T11:25:42.531Z,1004.95
2019-02-07T11:26:42.519Z,1004.81
2019-02-07T11:27:42.544Z,1004.85
2019-02-07T11:28:42.479Z,1004.89
2019-02-07T11:29:42.484Z,1004.50
2019-02-07T11:30:42.472Z,1004.94
2019-02-07T11:31:42.488Z,1004.88
2019-02-07T11:32:42.461Z,1004.94
2019-02-07T11:33:42.441Z,1004.85
2019-02-07T11:34:42.436Z,1004.87
2019-02-07T11:35:42.412Z,1004.79
2019-02-07T11:36:53.612Z,1004.75
2019-02-07T11:37:43.426Z,1004.74
2019-02-07T11:38:42.413Z,1004.72
2019-02-07T11:39:42.384Z,1004.84
2019-02-07T11:40:42.395Z,1004.64
2019-02-07T11:41:42.366Z,1004.43
2019-02-07T11:42:42.337Z,1004.50
2019-02-07T11:43:42.341Z,1004.45
2019-02-07T11:44:42.366Z,1004.37
2019-02-07T11:45:42.351Z,1004.46
2019-02-07T11:46:42.457Z,1004.43
2019-02-07T11:47:42.278Z,1004.47
2019-02-07T11:48:42.307Z,1004.36
2019-02-07T11:49:42.280Z,1004.36
2019-02-07T11:50:42.279Z,1004.41
2019-02-07T11:51:42.246Z,1004.48
2019-02-07T11:52:42.287Z,1004.56
2019-02-07T11:53:42.262Z,1004.59
2019-02-07T11:54:42.819Z,1004.52
2019-02-07T11:55:42.206Z,1004.48
2019-02-07T11:56:42.217Z,1004.39
2019-02-07T11:57:42.228Z,1004.48
2019-02-07T11:58:42.203Z,1004.46
2019-02-07T11:59:42.165Z,1004.28
2019-02-07T12:00:42.171Z,1004.37
2019-02-07T12:01:42.163Z,1004.36
2019-02-07T12:02:42.126Z,1004.36
2019-02-07T12:03:42.111Z,1004.44
2019-02-07T12:04:42.119Z,1004.40
2019-02-07T12:06:59.050Z,1004.41
2019-02-07T12:08:07.131Z,1004.51
2019-02-07T12:09:06.080Z,1004.55
2019-02-07T12:10:07.044Z,1004.60
2019-02-07T12:11:06.255Z,1004.67
2019-02-07T12:12:06.661Z,1004.77
2019-02-07T12:12:58.934Z,1004.57
2019-02-07T12:14:07.933Z,1004.60
2019-02-07T12:15:07.958Z,1004.71
2019-02-07T12:16:06.992Z,1004.65
2019-02-07T12:17:07.766Z,1004.57
2019-02-07T12:18:05.936Z,1004.50